Time;durP1;ratioP1;P1;durP2;ratioP2;P2;SDS_P1;SDS_P2;PMS_P1;PMS_P2;Temp;Humidity;BMP_temperature;BMP_pressure;BME280_temperature;BME280_humidity;BME280_pressure;Samples;Min_cycle;Max_cycle;Signal;HPM_P1;HPM_P2
2021/12/16 00:02:56;;;;;;;34.38;20.12;;;;;;;5.32;71.40;101210.63;4482035;32;33978;-85
2021/12/16 00:08:18;;;;;;;36.60;19.83;;;;;;;5.47;71.27;101210.69;4484805;32;34183;-70
2021/12/16 00:10:59;;;;;;;35.03;19.20;;;;;;;5.73;70.05;101215.69;4485710;32;34748;-74
2021/12/16 00:30:12;;;;;;;35.10;19.15;;;;;;;4.80;73.26;101211.25;4485556;32;34731;-82
2021/12/16 00:33:10;;;;;;;33.83;18.85;;;;;;;5.24;71.30;101208.81;4484042;32;34516;-80
2021/12/16 00:35:37;;;;;;;32.40;18.65;;;;;;;4.83;72.70;101210.88;4484163;32;33872;-81
2021/12/16 00:38:05;;;;;;;35.60;19.65;;;;;;;5.17;71.40;101221.31;4485413;32;35061;-72
2021/12/16 00:40:33;;;;;;;36.20;18.17;;;;;;;4.63;73.35;101213.16;4485216;32;33755;-73
2021/12/16 00:43:13;;;;;;;35.17;20.20;;;;;;;5.11;71.34;101220.16;4485006;32;33642;-68
2021/12/16 00:46:07;;;;;;;34.13;19.40;;;;;;;4.70;72.80;101222.19;4485264;32;33752;-72
2021/12/16 00:49:04;;;;;;;40.63;20.15;;;;;;;4.74;72.62;101220.84;4483807;32;33702;-91
2021/12/16 00:54:14;;;;;;;37.38;20.55;;;;;;;4.83;72.51;101225.16;4484943;32;34197;-72
2021/12/16 00:56:51;;;;;;;37.50;19.80;;;;;;;4.92;71.88;101215.19;4484299;32;33984;-69
2021/12/16 00:59:20;;;;;;;34.65;19.70;;;;;;;4.85;72.33;101216.94;4485206;32;34192;-75
2021/12/16 01:50:52;;;;;;;40.65;20.95;;;;;;;4.67;73.58;101193.81;4484944;32;34632;-89
2021/12/16 01:56:03;;;;;;;35.83;19.25;;;;;;;4.53;74.30;101189.16;4483892;32;33717;-71
2021/12/16 01:58:33;;;;;;;37.22;19.23;;;;;;;4.34;74.62;101181.50;4484978;32;34537;-68
2021/12/16 02:03:54;;;;;;;42.13;21.37;;;;;;;4.29;75.64;101196.28;4484130;32;34189;-82
2021/12/16 02:06:58;;;;;;;38.63;20.23;;;;;;;4.22;76.52;101181.03;4484528;32;33899;-79
2021/12/16 02:09:36;;;;;;;37.72;20.85;;;;;;;4.64;74.69;101177.19;4483904;32;33685;-89
2021/12/16 02:12:48;;;;;;;35.85;18.48;;;;;;;4.41;75.39;101175.28;4484760;32;33837;-89
2021/12/16 02:31:48;;;;;;;33.85;18.27;;;;;;;4.80;73.87;101173.59;4484763;32;33626;-92
2021/12/16 02:37:15;;;;;;;39.05;18.92;;;;;;;4.24;76.18;101177.16;4476181;31;33787;-81
2021/12/16 02:39:44;;;;;;;39.15;19.15;;;;;;;4.58;74.51;101176.06;4484881;32;34228;-71
2021/12/16 02:42:19;;;;;;;36.47;19.20;;;;;;;4.37;76.18;101168.56;4484474;32;34487;-86
2021/12/16 02:50:04;;;;;;;39.05;18.55;;;;;;;4.35;76.99;101162.53;4484359;32;34165;-70
2021/12/16 02:52:32;;;;;;;40.58;21.05;;;;;;;4.96;74.53;101153.84;4484272;32;33448;-72
2021/12/16 02:55:00;;;;;;;37.42;19.83;;;;;;;5.21;73.54;101158.03;4483232;32;33814;-89
2021/12/16 02:57:28;;;;;;;36.42;19.45;;;;;;;4.71;74.91;101159.37;4484309;32;33794;-74
2021/12/16 02:59:55;;;;;;;39.80;19.75;;;;;;;5.05;74.14;101160.84;4484427;32;33927;-76
2021/12/16 03:02:25;;;;;;;38.35;20.20;;;;;;;4.71;75.00;101160.19;4484278;32;33805;-72
2021/12/16 03:04:54;;;;;;;36.63;19.05;;;;;;;4.78;75.22;101159.50;4484155;32;33904;-90
2021/12/16 03:07:22;;;;;;;41.53;20.62;;;;;;;4.77;75.78;101147.88;4483117;32;34171;-69
2021/12/16 03:15:33;;;;;;;38.33;19.55;;;;;;;4.75;75.97;101125.69;4484007;32;33677;-78
2021/12/16 03:18:46;;;;;;;39.83;20.48;;;;;;;4.35;78.21;101129.44;4483222;32;34266;-92
2021/12/16 03:21:05;;;;;;;;;;;;;;;4.94;75.72;101137.88;4483688;32;34146;-84
2021/12/16 03:37:15;;;;;;;38.35;19.95;;;;;;;4.92;76.39;101137.22;4483942;32;34110;-78
2021/12/16 03:39:50;;;;;;;39.80;19.75;;;;;;;4.86;76.79;101144.16;4483519;31;35663;-79
2021/12/16 03:42:23;;;;;;;39.30;20.25;;;;;;;5.12;76.17;101140.28;4483850;32;33926;-80
2021/12/16 03:44:59;;;;;;;42.80;20.05;;;;;;;4.88;76.66;101142.13;4484119;32;34328;-76
2021/12/16 03:47:35;;;;;;;41.22;20.35;;;;;;;5.04;76.50;101135.78;4484072;32;34475;-70
2021/12/16 03:50:08;;;;;;;37.25;20.25;;;;;;;4.85;77.05;101137.09;4482920;32;35150;-91
2021/12/16 03:52:37;;;;;;;41.70;20.25;;;;;;;5.14;76.15;101139.09;4483560;32;34030;-91
2021/12/16 03:55:07;;;;;;;39.92;18.83;;;;;;;5.52;74.45;101135.59;4483945;32;33716;-73
2021/12/16 03:57:36;;;;;;;39.65;19.87;;;;;;;5.22;75.90;101134.66;4482672;32;34796;-88
2021/12/16 04:00:14;;;;;;;40.15;20.27;;;;;;;4.99;77.10;101138.19;4483667;32;33682;-76
2021/12/16 04:02:47;;;;;;;39.08;20.15;;;;;;;4.90;77.81;101139.22;4483521;32;35256;-77
2021/12/16 04:05:17;;;;;;;38.22;19.60;;;;;;;5.26;76.01;101142.19;4484652;31;33001;-88
2021/12/16 04:07:45;;;;;;;34.22;18.95;;;;;;;5.19;76.34;101141.25;4483596;32;34721;-94
2021/12/16 04:10:32;;;;;;;40.22;18.67;;;;;;;5.33;75.75;101148.53;4483460;32;33796;-68
2021/12/16 04:13:05;;;;;;;39.17;20.08;;;;;;;5.08;76.41;101142.50;4483626;32;33993;-75
2021/12/16 04:15:33;;;;;;;41.88;21.02;;;;;;;5.06;76.86;101138.31;4484159;32;33668;-77
2021/12/16 04:18:01;;;;;;;39.30;19.33;;;;;;;4.99;76.88;101130.12;4483701;32;34743;-96
2021/12/16 04:20:29;;;;;;;44.13;20.83;;;;;;;5.42;75.57;101125.09;4480699;32;87408;-84
2021/12/16 04:22:57;;;;;;;46.67;20.95;;;;;;;5.03;76.64;101139.50;4483162;32;35029;-93
2021/12/16 04:25:32;;;;;;;40.17;21.08;;;;;;;5.26;75.79;101133.28;4483948;32;33768;-68
2021/12/16 04:28:05;;;;;;;37.92;20.08;;;;;;;5.48;74.69;101134.28;4482121;32;34843;-69
2021/12/16 04:30:33;;;;;;;39.75;20.77;;;;;;;5.62;73.67;101125.41;4483618;32;33900;-70
2021/12/16 04:33:01;;;;;;;41.80;20.75;;;;;;;5.21;75.26;101127.63;4481818;32;32548;-70
2021/12/16 04:35:29;;;;;;;46.03;22.40;;;;;;;5.19;75.20;101137.72;4482184;32;33231;-71
2021/12/16 04:37:57;;;;;;;45.22;22.05;;;;;;;5.26;75.12;101141.34;4483202;32;34161;-76
2021/12/16 04:40:27;;;;;;;41.58;21.23;;;;;;;5.27;74.87;101145.72;4483080;32;34146;-72
2021/12/16 04:43:00;;;;;;;41.03;21.20;;;;;;;5.66;73.40;101137.50;4483414;32;34904;-72
2021/12/16 04:45:29;;;;;;;39.60;19.30;;;;;;;6.02;71.75;101139.50;4485441;32;34595;-72
2021/12/16 04:47:58;;;;;;;40.45;19.55;;;;;;;5.67;72.16;101141.03;4485208;32;33660;-73
2021/12/16 04:50:26;;;;;;;42.35;21.40;;;;;;;5.30;73.82;101140.00;4485436;32;34172;-68
2021/12/16 04:52:53;;;;;;;39.97;20.98;;;;;;;5.44;73.29;101133.81;4485180;32;34210;-70
2021/12/16 04:55:23;;;;;;;43.45;22.45;;;;;;;5.60;72.86;101135.53;4485431;32;33763;-67
2021/12/16 04:57:51;;;;;;;38.38;21.52;;;;;;;5.31;73.51;101136.25;4496648;31;33978;-68
2021/12/16 05:00:22;;;;;;;41.37;21.02;;;;;;;5.46;72.91;101137.16;4483798;32;34184;-71
2021/12/16 05:02:51;;;;;;;45.75;21.70;;;;;;;5.52;72.65;101127.53;4483748;32;34227;-72
2021/12/16 05:05:21;;;;;;;37.70;20.92;;;;;;;5.46;72.77;101125.56;4485289;32;34599;-67
2021/12/16 05:07:49;;;;;;;37.92;20.67;;;;;;;5.53;72.15;101130.03;4484995;32;33913;-76
2021/12/16 05:10:18;;;;;;;38.65;18.83;;;;;;;5.47;71.97;101120.00;4485340;32;34076;-69
2021/12/16 05:12:55;;;;;;;38.47;19.08;;;;;;;5.52;71.60;101124.81;4483828;32;34137;-71
2021/12/16 05:15:29;;;;;;;37.70;19.62;;;;;;;5.71;70.86;101118.09;4483527;32;34446;-67
2021/12/16 05:17:59;;;;;;;33.63;19.05;;;;;;;5.71;70.53;101121.63;4485127;32;34471;-69
2021/12/16 05:20:33;;;;;;;35.85;17.75;;;;;;;5.68;70.34;101124.69;4485166;32;35054;-72
2021/12/16 05:28:21;;;;;;;37.88;19.45;;;;;;;5.16;72.43;101133.50;4473130;32;33909;-69
2021/12/16 05:30:50;;;;;;;38.50;19.75;;;;;;;5.37;71.93;101132.84;4467078;32;34159;-68
2021/12/16 05:33:19;;;;;;;38.47;19.73;;;;;;;5.29;72.14;101141.00;4472381;32;34720;-67
2021/12/16 05:35:52;;;;;;;35.42;18.52;;;;;;;5.29;72.27;101138.28;4468942;32;34536;-67
2021/12/16 05:38:20;;;;;;;37.63;18.95;;;;;;;5.35;72.06;101142.97;4468583;32;33893;-68
2021/12/16 05:40:48;;;;;;;37.38;18.87;;;;;;;5.49;72.03;101135.97;4469025;32;34914;-69
2021/12/16 05:43:18;;;;;;;46.70;21.50;;;;;;;5.28;72.43;101140.16;4467377;32;33914;-70
2021/12/16 05:45:46;;;;;;;45.95;21.52;;;;;;;5.65;71.05;101145.75;4468466;32;33652;-71
2021/12/16 05:48:16;;;;;;;38.50;19.40;;;;;;;5.38;71.74;101149.84;4467392;32;33432;-70
2021/12/16 05:50:47;;;;;;;40.42;20.25;;;;;;;5.18;72.81;101150.31;4468970;32;35571;-71
2021/12/16 05:53:15;;;;;;;40.15;20.45;;;;;;;5.00;73.62;101158.69;4466706;32;34812;-69
2021/12/16 05:55:43;;;;;;;40.30;20.27;;;;;;;4.79;74.76;101159.28;4466855;32;33752;-70
2021/12/16 05:58:17;;;;;;;41.75;21.67;;;;;;;4.93;74.72;101158.56;4469035;32;34518;-69
2021/12/16 06:00:51;;;;;;;39.47;20.80;;;;;;;4.98;74.85;101154.50;4467741;32;35200;-69
2021/12/16 06:03:21;;;;;;;41.63;21.00;;;;;;;5.38;73.33;101161.47;4469756;32;33836;-66
2021/12/16 06:05:49;;;;;;;44.28;20.62;;;;;;;5.16;73.95;101157.72;4483825;32;34714;-67
2021/12/16 06:08:17;;;;;;;43.85;21.33;;;;;;;5.09;74.43;101157.59;4484268;32;33890;-67
2021/12/16 06:13:31;;;;;;;42.13;21.48;;;;;;;4.82;76.78;101155.44;4483737;32;34021;-66
2021/12/16 06:27:13;;;;;;;38.92;20.12;;;;;;;5.16;75.95;101160.41;4484202;32;33755;-68
2021/12/16 06:29:44;;;;;;;1.75;1.20;;;;;;;5.22;75.43;101161.56;4484147;32;33908;-68
2021/12/16 06:32:13;;;;;;;36.90;18.83;;;;;;;5.41;75.00;101153.00;4483123;32;33820;-72
2021/12/16 06:34:41;;;;;;;48.25;24.20;;;;;;;5.26;75.41;101152.94;4495759;31;34122;-66
2021/12/16 06:37:09;;;;;;;48.15;22.48;;;;;;;5.40;74.47;101163.94;4483924;32;33648;-67
2021/12/16 06:39:38;;;;;;;42.53;21.65;;;;;;;5.60;74.02;101159.75;4483718;32;34549;-69
2021/12/16 06:42:08;;;;;;;46.28;22.20;;;;;;;4.81;76.87;101164.50;4484197;32;33930;-69
2021/12/16 06:47:32;;;;;;;4.50;2.87;;;;;;;5.33;75.45;101166.53;4483421;32;33530;-70
2021/12/16 06:50:00;;;;;;;34.90;19.73;;;;;;;5.72;74.08;101169.09;4483600;32;33947;-70
2021/12/16 06:52:35;;;;;;;43.67;21.10;;;;;;;5.61;74.19;101168.66;4483536;32;34122;-67
2021/12/16 06:55:14;;;;;;;45.12;21.62;;;;;;;5.50;74.74;101170.75;4483521;32;34439;-70
2021/12/16 06:57:51;;;;;;;44.03;21.80;;;;;;;5.46;74.83;101179.37;4483741;32;33534;-66
2021/12/16 07:00:39;;;;;;;44.80;21.85;;;;;;;5.46;74.84;101177.53;4480392;32;34425;-65
2021/12/16 07:03:17;;;;;;;2.33;2.08;;;;;;;5.64;73.96;101179.09;4482049;32;34224;-66
2021/12/16 07:05:48;;;;;;;45.75;23.52;;;;;;;6.09;72.05;101183.59;4483433;32;34058;-66
2021/12/16 07:08:17;;;;;;;54.47;24.83;;;;;;;5.57;73.94;101183.50;4483889;32;33822;-66
2021/12/16 07:10:47;;;;;;;48.33;24.12;;;;;;;5.75;73.28;101184.88;4483875;32;33814;-65
2021/12/16 07:13:19;;;;;;;48.85;23.85;;;;;;;5.56;73.90;101182.69;4483595;32;35218;-65
2021/12/16 07:15:48;;;;;;;45.75;23.45;;;;;;;5.71;73.54;101180.88;4482764;32;34037;-68
2021/12/16 07:18:15;;;;;;;43.47;23.33;;;;;;;5.33;74.87;101178.16;4483331;32;33833;-67
2021/12/16 07:20:43;;;;;;;44.88;21.83;;;;;;;5.68;73.94;101180.38;4483791;32;33405;-68
2021/12/16 07:23:11;;;;;;;39.10;19.95;;;;;;;4.90;77.50;101172.37;4483605;32;35210;-69
2021/12/16 07:25:39;;;;;;;3.40;2.75;;;;;;;5.17;76.83;101185.50;4483098;32;34593;-69
2021/12/16 07:28:07;;;;;;;39.45;20.00;;;;;;;5.09;77.27;101180.97;4483463;32;34458;-66
2021/12/16 07:30:38;;;;;;;41.72;20.45;;;;;;;5.24;77.03;101187.28;4482686;32;33674;-66
2021/12/16 07:33:06;;;;;;;40.63;20.08;;;;;;;5.71;75.09;101177.34;4481335;32;35125;-69
2021/12/16 07:35:35;;;;;;;40.80;20.80;;;;;;;5.12;77.28;101188.72;4467859;32;34253;-67
2021/12/16 07:38:05;;;;;;;40.38;21.20;;;;;;;5.21;77.23;101190.34;4479563;32;34003;-67
2021/12/16 07:40:33;;;;;;;44.30;21.35;;;;;;;5.54;75.76;101188.22;4483251;32;34809;-68
2021/12/16 07:45:43;;;;;;;40.33;20.52;;;;;;;5.40;76.65;101175.56;4482346;32;34339;-68
2021/12/16 07:48:13;;;;;;;43.58;21.08;;;;;;;5.16;77.44;101178.41;4483194;32;33771;-67
2021/12/16 07:50:43;;;;;;;3.92;2.15;;;;;;;5.05;78.51;101177.81;4483185;32;35072;-67
2021/12/16 07:53:11;;;;;;;43.65;21.92;;;;;;;4.88;79.98;101178.91;4482572;32;33961;-67
2021/12/16 07:55:41;;;;;;;42.15;21.30;;;;;;;4.75;80.27;101173.28;4482913;32;33924;-71
2021/12/16 07:58:10;;;;;;;39.97;20.85;;;;;;;4.56;80.75;101185.28;4481613;32;33658;-70
2021/12/16 08:00:38;;;;;;;41.03;20.85;;;;;;;5.28;78.23;101190.47;4494135;31;35208;-67
2021/12/16 08:03:09;;;;;;;43.65;21.52;;;;;;;5.23;78.59;101188.31;4494603;31;33788;-70
2021/12/16 08:05:44;;;;;;;39.88;20.35;;;;;;;5.07;79.14;101188.41;4482595;32;34272;-75
2021/12/16 08:08:12;;;;;;;41.20;20.10;;;;;;;5.39;77.58;101183.81;4483212;32;34284;-81
2021/12/16 08:10:39;;;;;;;40.08;20.90;;;;;;;4.92;79.89;101188.31;4481841;32;33496;-71
2021/12/16 08:13:07;;;;;;;42.85;20.40;;;;;;;4.76;80.76;101188.41;4482564;32;34969;-69
2021/12/16 08:15:35;;;;;;;44.97;22.33;;;;;;;5.02;79.62;101196.16;4482004;32;34235;-72
2021/12/16 08:18:02;;;;;;;45.17;20.98;;;;;;;4.95;80.45;101190.66;4483420;32;34641;-71
2021/12/16 08:20:30;;;;;;;41.28;20.15;;;;;;;4.96;80.82;101194.19;4484634;32;34511;-74
2021/12/16 08:22:58;;;;;;;41.28;19.25;;;;;;;4.97;80.52;101183.25;4484691;32;34031;-69
2021/12/16 08:25:27;;;;;;;39.88;20.23;;;;;;;5.30;79.49;101191.94;4484625;32;33998;-68
2021/12/16 08:27:55;;;;;;;37.85;19.27;;;;;;;5.12;80.20;101189.56;4484999;32;34652;-71
2021/12/16 08:30:27;;;;;;;39.58;20.50;;;;;;;5.16;79.81;101190.00;4483020;32;32585;-69
2021/12/16 08:32:56;;;;;;;41.10;21.45;;;;;;;5.16;80.17;101189.19;4484587;32;34681;-68
2021/12/16 08:35:24;;;;;;;42.42;20.85;;;;;;;5.19;79.82;101191.53;4484265;32;34177;-68
2021/12/16 08:37:51;;;;;;;37.33;18.80;;;;;;;5.51;78.53;101187.78;4484646;32;33344;-67
2021/12/16 08:40:20;;;;;;;41.60;21.00;;;;;;;5.87;76.96;101185.25;4484877;32;34696;-66
2021/12/16 08:42:48;;;;;;;40.22;20.25;;;;;;;5.82;77.13;101181.47;4484850;32;34022;-67
2021/12/16 08:45:20;;;;;;;39.85;21.40;;;;;;;5.73;77.31;101178.00;4484039;32;34070;-69
2021/12/16 08:47:48;;;;;;;41.75;21.77;;;;;;;5.13;80.46;101188.53;4484522;32;34847;-67
2021/12/16 08:50:18;;;;;;;40.58;21.30;;;;;;;5.27;80.33;101184.25;4483700;32;33918;-69
2021/12/16 08:52:46;;;;;;;44.08;21.42;;;;;;;5.79;79.20;101182.66;4484316;32;33393;-70
2021/12/16 08:55:14;;;;;;;44.08;20.23;;;;;;;5.74;78.95;101185.91;4483406;32;34181;-69
2021/12/16 08:57:43;;;;;;;41.28;22.35;;;;;;;5.97;78.08;101185.03;4485110;32;33772;-70
2021/12/16 09:00:16;;;;;;;42.05;22.35;;;;;;;5.56;79.24;101179.97;4472081;32;34828;-69
2021/12/16 09:02:44;;;;;;;42.60;21.85;;;;;;;5.93;77.62;101189.91;4469293;32;33895;-70
2021/12/16 09:05:11;;;;;;;44.00;22.27;;;;;;;5.48;80.01;101188.12;4468685;32;34905;-70
2021/12/16 09:07:39;;;;;;;40.05;21.20;;;;;;;5.30;80.99;101185.72;4469538;32;33448;-70
2021/12/16 09:10:10;;;;;;;41.67;21.52;;;;;;;5.81;80.09;101180.62;4469393;32;33818;-71
2021/12/16 09:12:51;;;;;;;41.25;21.52;;;;;;;5.48;81.75;101183.56;4468197;32;34375;-77
2021/12/16 09:15:23;;;;;;;42.47;20.83;;;;;;;5.93;79.78;101175.63;4469239;32;34732;-82
2021/12/16 09:17:52;;;;;;;42.75;19.45;;;;;;;5.63;80.92;101175.53;4469749;32;34608;-76
2021/12/16 09:20:20;;;;;;;38.58;20.20;;;;;;;5.89;79.90;101185.91;4481243;32;33901;-71
2021/12/16 09:22:48;;;;;;;34.45;19.10;;;;;;;5.71;80.61;101178.16;4467893;32;35188;-72
2021/12/16 09:25:16;;;;;;;42.50;20.15;;;;;;;5.72;79.80;101184.38;4469177;32;34275;-74
2021/12/16 09:27:44;;;;;;;38.60;20.88;;;;;;;5.84;79.61;101188.31;4468185;32;31730;-71
2021/12/16 09:30:16;;;;;;;43.40;19.80;;;;;;;6.18;78.64;101178.09;4467317;32;33200;-72
2021/12/16 09:32:45;;;;;;;39.67;20.50;;;;;;;5.82;79.41;101184.97;4481382;32;34083;-70
2021/12/16 09:35:13;;;;;;;42.55;19.58;;;;;;;5.95;79.99;101182.53;4468826;32;35096;-75
2021/12/16 09:37:41;;;;;;;40.92;20.23;;;;;;;6.57;77.39;101181.34;4469639;32;33449;-70
2021/12/16 09:40:15;;;;;;;38.95;19.52;;;;;;;6.42;77.41;101177.00;4484822;32;35034;-76
2021/12/16 09:42:42;;;;;;;36.10;19.27;;;;;;;6.45;77.66;101168.53;4483842;32;34185;-72
2021/12/16 09:45:11;;;;;;;34.65;18.60;;;;;;;5.55;79.88;101168.38;4483274;32;34985;-80
2021/12/16 09:47:39;;;;;;;38.10;19.75;;;;;;;6.06;78.45;101175.84;4484660;32;33416;-75
2021/12/16 09:50:08;;;;;;;33.55;18.02;;;;;;;6.48;77.37;101174.41;4468137;32;33660;-79
2021/12/16 09:52:36;;;;;;;36.03;19.30;;;;;;;6.34;76.87;101164.44;4468641;32;34389;-68
2021/12/16 09:55:06;;;;;;;33.58;18.50;;;;;;;6.78;75.44;101161.72;4468499;32;34411;-69
2021/12/16 09:57:35;;;;;;;33.40;17.77;;;;;;;6.53;76.58;101174.66;4469274;32;33689;-69
2021/12/16 10:00:09;;;;;;;36.50;18.42;;;;;;;6.92;75.16;101165.37;4469133;32;34046;-70
2021/12/16 10:02:38;;;;;;;33.93;17.17;;;;;;;6.93;75.34;101166.22;4480626;32;35133;-69
2021/12/16 10:05:09;;;;;;;31.60;18.02;;;;;;;6.96;74.96;101157.75;4468363;32;34230;-68
2021/12/16 10:07:37;;;;;;;32.47;18.55;;;;;;;7.44;73.75;101162.59;4468785;32;33999;-68
2021/12/16 10:10:09;;;;;;;32.97;17.12;;;;;;;7.15;73.31;101156.31;4468894;32;34758;-70
2021/12/16 10:12:40;;;;;;;30.27;17.37;;;;;;;7.44;73.37;101159.91;4483761;31;34252;-68
2021/12/16 10:18:11;;;;;;;35.70;17.25;;;;;;;6.61;76.40;101154.84;4482514;32;33548;-69
2021/12/16 10:20:43;;;;;;;34.00;18.37;;;;;;;7.05;74.55;101144.97;4484468;32;33668;-70
2021/12/16 10:23:21;;;;;;;31.98;17.85;;;;;;;6.86;74.53;101135.63;4484136;32;34298;-73
2021/12/16 10:25:52;;;;;;;31.27;16.52;;;;;;;7.29;74.49;101133.81;4483685;32;34215;-71
2021/12/16 10:28:24;;;;;;;33.30;17.50;;;;;;;7.04;73.24;101133.34;4484353;32;33667;-68
2021/12/16 10:31:02;;;;;;;31.15;16.15;;;;;;;7.85;72.11;101134.91;4484380;32;33990;-75
2021/12/16 10:33:35;;;;;;;29.63;16.37;;;;;;;7.39;72.97;101133.50;4484433;32;35137;-69
2021/12/16 10:36:05;;;;;;;32.13;17.42;;;;;;;7.27;73.58;101135.84;4482972;32;34775;-69
2021/12/16 10:38:39;;;;;;;30.60;16.62;;;;;;;7.76;72.41;101131.50;4484067;32;33321;-71
2021/12/16 10:41:09;;;;;;;30.12;16.08;;;;;;;7.96;70.06;101132.47;4482859;32;33587;-69
2021/12/16 10:43:41;;;;;;;29.27;16.27;;;;;;;7.74;71.07;101133.56;4483960;32;34189;-69
2021/12/16 10:46:21;;;;;;;30.35;16.15;;;;;;;7.10;72.90;101127.16;4483625;32;34289;-70
2021/12/16 10:48:55;;;;;;;27.40;14.70;;;;;;;7.99;70.23;101129.41;4476979;32;33547;-77
2021/12/16 10:51:35;;;;;;;28.10;16.15;;;;;;;7.87;70.36;101130.12;4483754;32;33911;-76
2021/12/16 10:54:29;;;;;;;28.00;16.67;;;;;;;6.93;73.41;101117.66;4483647;32;34097;-70
2021/12/16 10:57:04;;;;;;;29.00;16.12;;;;;;;7.24;73.49;101121.94;4483391;32;34867;-72
2021/12/16 10:59:45;;;;;;;30.10;16.27;;;;;;;7.09;74.06;101120.12;4483807;32;33715;-78
2021/12/16 11:02:30;;;;;;;28.40;16.80;;;;;;;7.53;72.71;101115.53;4484190;32;33740;-70
2021/12/16 11:05:01;;;;;;;30.80;15.45;;;;;;;7.01;73.82;101119.41;4466309;32;34058;-76
2021/12/16 11:07:36;;;;;;;32.58;16.90;;;;;;;6.70;75.48;101125.91;4468389;32;33837;-71
2021/12/16 11:10:06;;;;;;;29.85;16.37;;;;;;;6.63;75.50;101127.69;4468337;32;34500;-70
2021/12/16 11:12:47;;;;;;;32.67;17.73;;;;;;;6.60;76.38;101122.69;4468145;32;33955;-70
2021/12/16 11:15:40;;;;;;;30.75;18.30;;;;;;;6.53;76.38;101128.00;4466591;32;34885;-74
2021/12/16 11:18:13;;;;;;;30.92;17.00;;;;;;;6.62;75.98;101121.47;4468117;32;33756;-72
2021/12/16 11:20:48;;;;;;;29.15;15.90;;;;;;;7.17;74.58;101116.44;4475957;32;33627;-72
2021/12/16 11:23:18;;;;;;;30.50;17.20;;;;;;;7.01;75.01;101111.31;4468274;32;33919;-69
2021/12/16 11:25:52;;;;;;;26.92;16.10;;;;;;;7.13;74.58;101107.09;4467790;32;34669;-71
2021/12/16 11:28:28;;;;;;;29.37;15.75;;;;;;;7.25;73.87;101123.59;4467841;32;34188;-73
2021/12/16 11:30:57;;;;;;;31.10;16.45;;;;;;;7.57;72.82;101114.09;4466909;32;34668;-68
2021/12/16 11:33:26;;;;;;;30.00;16.67;;;;;;;7.95;71.64;101102.97;4468447;32;33836;-69
2021/12/16 11:35:59;;;;;;;28.35;15.35;;;;;;;7.91;71.33;101105.22;4479227;32;34183;-68
2021/12/16 11:38:30;;;;;;;29.37;16.58;;;;;;;7.55;72.91;101103.50;4483384;32;34762;-69
2021/12/16 11:41:19;;;;;;;24.77;15.73;;;;;;;7.40;73.39;101102.75;4484223;32;34497;-67
2021/12/16 11:44:00;;;;;;;28.80;15.98;;;;;;;7.29;73.04;101103.28;4483595;32;33415;-68
2021/12/16 11:46:44;;;;;;;26.30;15.82;;;;;;;7.68;72.18;101113.56;4483308;32;33678;-67
2021/12/16 11:49:28;;;;;;;26.42;14.43;;;;;;;7.67;71.48;101103.81;4483727;32;34787;-68
2021/12/16 11:52:10;;;;;;;28.55;16.05;;;;;;;7.31;73.71;101098.53;4483526;32;34171;-68
2021/12/16 11:54:47;;;;;;;27.42;15.30;;;;;;;6.98;74.54;101099.88;4483054;32;34229;-67
2021/12/16 11:57:14;;;;;;;27.80;17.27;;;;;;;6.48;76.85;101101.59;4483386;32;34229;-66
2021/12/16 11:59:48;;;;;;;28.80;15.82;;;;;;;6.49;77.14;101094.34;4481179;32;34085;-75
2021/12/16 12:02:26;;;;;;;28.10;16.30;;;;;;;6.50;77.13;101087.91;4484046;32;33838;-68
2021/12/16 12:05:22;;;;;;;24.15;15.02;;;;;;;6.91;75.79;101085.50;4481576;32;33282;-67
2021/12/16 12:07:57;;;;;;;28.80;15.40;;;;;;;6.85;75.71;101088.13;4483419;32;34354;-67
2021/12/16 12:10:35;;;;;;;25.33;15.90;;;;;;;6.59;76.91;101084.09;4483757;32;34152;-68
2021/12/16 12:13:06;;;;;;;26.55;16.00;;;;;;;6.29;78.10;101091.41;4483352;32;33955;-68
2021/12/16 12:15:52;;;;;;;26.15;16.77;;;;;;;6.51;77.64;101089.59;4482927;32;33738;-67
2021/12/16 12:18:30;;;;;;;26.95;16.48;;;;;;;6.67;76.60;101088.53;4483132;32;33753;-69
2021/12/16 12:21:28;;;;;;;27.33;15.13;;;;;;;6.37;78.29;101097.53;4483280;32;34484;-73
2021/12/16 12:23:59;;;;;;;26.73;15.75;;;;;;;6.43;77.85;101087.00;4483398;32;33482;-72
2021/12/16 12:26:29;;;;;;;27.85;16.05;;;;;;;6.70;76.88;101086.28;4482708;32;33575;-74
2021/12/16 12:29:03;;;;;;;24.60;14.95;;;;;;;6.52;77.48;101085.84;4481797;32;33559;-72
2021/12/16 12:31:33;;;;;;;26.23;15.88;;;;;;;6.66;76.57;101082.31;4483072;32;35121;-74
2021/12/16 12:34:00;;;;;;;26.85;15.85;;;;;;;6.57;77.59;101086.16;4481739;32;33588;-74
2021/12/16 12:36:28;;;;;;;25.90;16.20;;;;;;;6.87;76.39;101077.94;4482588;32;34377;-75
2021/12/16 12:38:57;;;;;;;26.20;15.30;;;;;;;7.30;74.43;101088.72;4482707;32;35018;-77
2021/12/16 12:41:24;;;;;;;29.65;15.50;;;;;;;7.02;75.28;101083.28;4482311;32;34145;-77
2021/12/16 12:43:52;;;;;;;27.10;15.40;;;;;;;7.35;74.17;101080.91;4480301;31;33523;-73
2021/12/16 12:46:20;;;;;;;25.05;14.98;;;;;;;6.88;75.05;101071.53;4468381;32;34719;-76
2021/12/16 12:48:49;;;;;;;26.75;15.88;;;;;;;7.32;73.99;101074.03;4479903;31;34117;-69
2021/12/16 12:51:16;;;;;;;24.83;14.87;;;;;;;7.64;72.68;101077.16;4481157;32;33936;-74
2021/12/16 12:53:50;;;;;;;25.92;14.43;;;;;;;7.32;73.61;101068.63;4482710;32;34382;-71
2021/12/16 12:56:28;;;;;;;24.45;14.40;;;;;;;7.16;73.91;101068.91;4481797;32;34583;-68
2021/12/16 12:58:58;;;;;;;26.87;15.23;;;;;;;7.19;74.61;101068.50;4482253;32;34393;-68
2021/12/16 13:01:35;;;;;;;24.27;13.88;;;;;;;7.30;74.19;101070.69;4481215;32;34052;-70
2021/12/16 13:04:14;;;;;;;26.10;15.18;;;;;;;7.37;73.31;101071.56;4482434;32;34474;-67
2021/12/16 13:07:20;;;;;;;23.48;14.63;;;;;;;7.58;72.78;101077.94;4484365;32;35215;-67
2021/12/16 13:09:55;;;;;;;24.63;14.02;;;;;;;7.79;72.23;101074.37;4484418;32;34651;-67
2021/12/16 13:12:27;;;;;;;27.23;14.63;;;;;;;7.23;73.63;101083.28;4484389;32;34810;-68
2021/12/16 13:15:04;;;;;;;23.48;14.32;;;;;;;7.15;74.39;101073.47;4484370;32;33802;-68
2021/12/16 13:23:26;;;;;;;24.80;14.38;;;;;;;6.84;74.94;101087.25;4484348;32;33599;-68
2021/12/16 13:26:37;;;;;;;27.52;15.40;;;;;;;6.70;76.07;101097.09;4484144;32;33238;-70
2021/12/16 13:29:27;;;;;;;28.05;15.38;;;;;;;6.58;76.74;101082.41;4483256;32;34901;-69
2021/12/16 13:32:16;;;;;;;22.90;13.38;;;;;;;6.66;76.30;101090.41;4483037;32;34268;-69
2021/12/16 13:34:58;;;;;;;25.33;14.32;;;;;;;7.15;74.05;101089.66;4470348;32;33840;-68
2021/12/16 13:37:35;;;;;;;23.30;14.02;;;;;;;6.97;74.72;101098.19;4484241;32;33844;-68
2021/12/16 13:40:09;;;;;;;23.87;14.32;;;;;;;7.28;74.16;101098.88;4484259;32;33966;-70
2021/12/16 13:42:47;;;;;;;24.73;14.63;;;;;;;6.56;76.10;101092.53;4482735;32;35001;-70
2021/12/16 13:45:23;;;;;;;21.58;12.93;;;;;;;6.36;77.33;101106.62;4484268;32;35396;-68
2021/12/16 13:48:08;;;;;;;22.42;13.62;;;;;;;7.05;74.30;101108.03;4483567;32;34009;-68
2021/12/16 14:08:00;;;;;;;22.90;13.77;;;;;;;6.54;76.48;101116.16;4484122;32;34536;-70
2021/12/16 14:10:51;;;;;;;21.70;13.07;;;;;;;6.08;78.64;101103.75;4484099;32;33659;-69
2021/12/16 14:16:43;;;;;;;22.90;13.62;;;;;;;6.37;77.23;101102.91;4482854;32;34284;-71
2021/12/16 14:49:51;;;;;;;20.12;11.85;;;;;;;7.65;71.96;101116.69;4466032;32;33829;-68
2021/12/16 14:52:22;;;;;;;20.05;12.02;;;;;;;7.53;72.63;101110.94;4480988;31;33855;-74
2021/12/16 14:54:54;;;;;;;21.23;12.40;;;;;;;7.28;73.34;101117.78;4484216;32;33656;-77
2021/12/16 14:57:27;;;;;;;20.52;12.80;;;;;;;7.63;71.94;101116.03;4484163;32;33956;-81
2021/12/16 14:59:54;;;;;;;24.50;13.50;;;;;;;7.52;72.29;101125.50;4470138;32;33790;-89
2021/12/16 15:02:27;;;;;;;22.33;12.40;;;;;;;7.48;72.44;101124.22;4484519;32;34136;-82
2021/12/16 15:04:55;;;;;;;19.52;12.10;;;;;;;7.68;71.57;101127.06;4484016;32;33860;-70
2021/12/16 15:07:25;;;;;;;21.75;12.70;;;;;;;6.90;75.21;101120.75;4495936;31;34188;-70
2021/12/16 15:09:55;;;;;;;21.75;12.70;;;;;;;7.61;72.36;101118.09;4483889;32;35147;-69